sensor_id;sensor_type;location;lat;lon;timestamp;P1;durP1;ratioP1;P2;durP2;ratioP2
72464;SDS011;60471;52.150;4.508;2022-11-12T00:00:56;43.30;;;26.63;;
72464;SDS011;60471;52.150;4.508;2022-11-12T00:03:24;47.42;;;26.60;;
72464;SDS011;60471;52.150;4.508;2022-11-12T00:05:53;44.83;;;25.20;;
72464;SDS011;60471;52.150;4.508;2022-11-12T00:08:19;51.60;;;29.63;;
72464;SDS011;60471;52.150;4.508;2022-11-12T00:10:46;51.72;;;28.50;;
72464;SDS011;60471;52.150;4.508;2022-11-12T00:13:12;48.65;;;29.10;;
72464;SDS011;60471;52.150;4.508;2022-11-12T00:15:39;55.42;;;31.00;;
72464;SDS011;60471;52.150;4.508;2022-11-12T00:18:05;51.10;;;29.90;;
72464;SDS011;60471;52.150;4.508;2022-11-12T00:20:32;52.92;;;28.27;;
72464;SDS011;60471;52.150;4.508;2022-11-12T00:22:59;50.55;;;29.13;;
72464;SDS011;60471;52.150;4.508;2022-11-12T00:25:25;57.35;;;30.30;;
72464;SDS011;60471;52.150;4.508;2022-11-12T00:27:51;49.92;;;30.40;;
72464;SDS011;60471;52.150;4.508;2022-11-12T00:30:17;57.85;;;30.38;;
72464;SDS011;60471;52.150;4.508;2022-11-12T00:32:44;54.45;;;31.40;;
72464;SDS011;60471;52.150;4.508;2022-11-12T00:35:10;57.75;;;33.65;;
72464;SDS011;60471;52.150;4.508;2022-11-12T00:37:36;57.45;;;34.60;;
72464;SDS011;60471;52.150;4.508;2022-11-12T00:40:03;64.82;;;35.70;;
72464;SDS011;60471;52.150;4.508;2022-11-12T00:42:30;62.92;;;34.80;;
72464;SDS011;60471;52.150;4.508;2022-11-12T00:44:56;62.03;;;37.08;;
72464;SDS011;60471;52.150;4.508;2022-11-12T00:47:22;63.35;;;37.35;;
72464;SDS011;60471;52.150;4.508;2022-11-12T00:49:48;59.45;;;35.45;;
72464;SDS011;60471;52.150;4.508;2022-11-12T00:52:15;59.17;;;36.53;;
72464;SDS011;60471;52.150;4.508;2022-11-12T00:54:41;65.40;;;35.50;;
72464;SDS011;60471;52.150;4.508;2022-11-12T00:57:07;60.38;;;36.25;;
72464;SDS011;60471;52.150;4.508;2022-11-12T00:59:33;61.78;;;37.50;;
72464;SDS011;60471;52.150;4.508;2022-11-12T01:01:59;63.70;;;37.38;;
72464;SDS011;60471;52.150;4.508;2022-11-12T01:04:26;64.47;;;38.58;;
72464;SDS011;60471;52.150;4.508;2022-11-12T01:06:52;70.20;;;39.28;;
72464;SDS011;60471;52.150;4.508;2022-11-12T01:09:18;63.10;;;39.38;;
72464;SDS011;60471;52.150;4.508;2022-11-12T01:11:44;70.07;;;40.00;;
72464;SDS011;60471;52.150;4.508;2022-11-12T01:14:10;67.40;;;38.53;;
72464;SDS011;60471;52.150;4.508;2022-11-12T01:16:38;63.35;;;39.63;;
72464;SDS011;60471;52.150;4.508;2022-11-12T01:19:08;66.50;;;40.17;;
72464;SDS011;60471;52.150;4.508;2022-11-12T01:21:37;68.47;;;41.58;;
72464;SDS011;60471;52.150;4.508;2022-11-12T01:24:07;66.47;;;39.80;;
72464;SDS011;60471;52.150;4.508;2022-11-12T01:26:34;67.85;;;38.38;;
72464;SDS011;60471;52.150;4.508;2022-11-12T01:29:02;63.25;;;39.00;;
72464;SDS011;60471;52.150;4.508;2022-11-12T01:31:36;73.18;;;41.13;;
72464;SDS011;60471;52.150;4.508;2022-11-12T01:34:04;67.45;;;41.42;;
72464;SDS011;60471;52.150;4.508;2022-11-12T01:36:36;75.75;;;43.03;;
72464;SDS011;60471;52.150;4.508;2022-11-12T01:39:05;72.35;;;41.38;;
72464;SDS011;60471;52.150;4.508;2022-11-12T01:41:34;71.13;;;42.40;;
72464;SDS011;60471;52.150;4.508;2022-11-12T01:44:11;66.32;;;41.03;;
72464;SDS011;60471;52.150;4.508;2022-11-12T01:49:30;67.72;;;41.80;;
72464;SDS011;60471;52.150;4.508;2022-11-12T01:54:50;75.97;;;42.63;;
72464;SDS011;60471;52.150;4.508;2022-11-12T01:57:26;72.60;;;44.78;;
72464;SDS011;60471;52.150;4.508;2022-11-12T01:59:59;67.88;;;42.95;;
72464;SDS011;60471;52.150;4.508;2022-11-12T02:02:32;76.00;;;45.47;;
72464;SDS011;60471;52.150;4.508;2022-11-12T02:05:02;74.13;;;44.25;;
72464;SDS011;60471;52.150;4.508;2022-11-12T02:07:33;77.53;;;45.03;;
72464;SDS011;60471;52.150;4.508;2022-11-12T02:10:04;76.30;;;45.08;;
72464;SDS011;60471;52.150;4.508;2022-11-12T02:12:32;75.10;;;45.22;;
72464;SDS011;60471;52.150;4.508;2022-11-12T02:15:18;71.47;;;44.75;;
72464;SDS011;60471;52.150;4.508;2022-11-12T02:17:44;72.40;;;45.88;;
72464;SDS011;60471;52.150;4.508;2022-11-12T02:20:11;72.45;;;43.30;;
72464;SDS011;60471;52.150;4.508;2022-11-12T02:22:39;77.10;;;46.45;;
72464;SDS011;60471;52.150;4.508;2022-11-12T02:25:06;77.40;;;46.08;;
72464;SDS011;60471;52.150;4.508;2022-11-12T02:27:37;71.63;;;40.57;;
72464;SDS011;60471;52.150;4.508;2022-11-12T02:30:04;70.93;;;42.63;;
72464;SDS011;60471;52.150;4.508;2022-11-12T02:32:31;68.78;;;42.70;;
72464;SDS011;60471;52.150;4.508;2022-11-12T02:34:57;72.22;;;41.25;;
72464;SDS011;60471;52.150;4.508;2022-11-12T02:37:23;75.88;;;43.50;;
72464;SDS011;60471;52.150;4.508;2022-11-12T02:39:49;72.22;;;43.92;;
72464;SDS011;60471;52.150;4.508;2022-11-12T02:42:15;70.25;;;42.33;;
72464;SDS011;60471;52.150;4.508;2022-11-12T02:44:42;65.45;;;40.30;;
72464;SDS011;60471;52.150;4.508;2022-11-12T02:47:08;70.03;;;40.83;;
72464;SDS011;60471;52.150;4.508;2022-11-12T02:49:34;71.35;;;41.85;;
72464;SDS011;60471;52.150;4.508;2022-11-12T02:52:01;70.13;;;42.25;;
72464;SDS011;60471;52.150;4.508;2022-11-12T02:54:27;76.38;;;41.85;;
72464;SDS011;60471;52.150;4.508;2022-11-12T02:56:53;70.18;;;42.67;;
72464;SDS011;60471;52.150;4.508;2022-11-12T02:59:19;76.28;;;42.25;;
72464;SDS011;60471;52.150;4.508;2022-11-12T03:01:48;70.38;;;41.28;;
72464;SDS011;60471;52.150;4.508;2022-11-12T03:04:15;66.45;;;42.03;;
72464;SDS011;60471;52.150;4.508;2022-11-12T03:06:41;66.35;;;41.58;;
72464;SDS011;60471;52.150;4.508;2022-11-12T03:09:07;69.25;;;41.92;;
72464;SDS011;60471;52.150;4.508;2022-11-12T03:11:33;74.53;;;42.15;;
72464;SDS011;60471;52.150;4.508;2022-11-12T03:14:00;77.82;;;44.47;;
72464;SDS011;60471;52.150;4.508;2022-11-12T03:16:26;70.38;;;42.35;;
72464;SDS011;60471;52.150;4.508;2022-11-12T03:18:53;76.95;;;43.15;;
72464;SDS011;60471;52.150;4.508;2022-11-12T03:21:19;80.55;;;44.85;;
72464;SDS011;60471;52.150;4.508;2022-11-12T03:23:45;76.45;;;44.58;;
72464;SDS011;60471;52.150;4.508;2022-11-12T03:26:11;81.78;;;44.55;;
72464;SDS011;60471;52.150;4.508;2022-11-12T03:28:37;81.28;;;44.38;;
72464;SDS011;60471;52.150;4.508;2022-11-12T03:31:04;82.05;;;44.35;;
72464;SDS011;60471;52.150;4.508;2022-11-12T03:33:30;94.43;;;46.75;;
72464;SDS011;60471;52.150;4.508;2022-11-12T03:35:56;104.05;;;48.83;;
72464;SDS011;60471;52.150;4.508;2022-11-12T03:38:22;89.07;;;47.15;;
72464;SDS011;60471;52.150;4.508;2022-11-12T03:40:49;89.88;;;47.33;;
72464;SDS011;60471;52.150;4.508;2022-11-12T03:43:15;96.50;;;48.63;;
72464;SDS011;60471;52.150;4.508;2022-11-12T03:45:41;99.18;;;48.67;;
72464;SDS011;60471;52.150;4.508;2022-11-12T03:48:07;92.43;;;47.88;;
72464;SDS011;60471;52.150;4.508;2022-11-12T03:50:34;95.50;;;47.97;;
72464;SDS011;60471;52.150;4.508;2022-11-12T03:53:00;95.50;;;51.47;;
72464;SDS011;60471;52.150;4.508;2022-11-12T03:55:27;97.45;;;49.92;;
72464;SDS011;60471;52.150;4.508;2022-11-12T03:57:55;102.68;;;51.05;;
72464;SDS011;60471;52.150;4.508;2022-11-12T04:00:22;103.65;;;50.33;;
72464;SDS011;60471;52.150;4.508;2022-11-12T04:02:51;92.18;;;47.25;;
72464;SDS011;60471;52.150;4.508;2022-11-12T04:05:18;95.28;;;48.92;;
72464;SDS011;60471;52.150;4.508;2022-11-12T04:08:09;98.72;;;48.58;;
72464;SDS011;60471;52.150;4.508;2022-11-12T04:11:01;101.20;;;48.55;;
72464;SDS011;60471;52.150;4.508;2022-11-12T04:13:42;92.93;;;48.20;;
72464;SDS011;60471;52.150;4.508;2022-11-12T04:16:14;95.40;;;49.90;;
72464;SDS011;60471;52.150;4.508;2022-11-12T04:19:02;104.10;;;50.70;;
72464;SDS011;60471;52.150;4.508;2022-11-12T04:21:51;100.07;;;46.67;;
72464;SDS011;60471;52.150;4.508;2022-11-12T04:24:40;101.38;;;47.22;;
72464;SDS011;60471;52.150;4.508;2022-11-12T04:27:30;99.97;;;47.97;;
72464;SDS011;60471;52.150;4.508;2022-11-12T04:29:59;102.80;;;49.75;;
72464;SDS011;60471;52.150;4.508;2022-11-12T04:32:46;110.97;;;50.13;;
72464;SDS011;60471;52.150;4.508;2022-11-12T04:35:22;109.97;;;51.58;;
72464;SDS011;60471;52.150;4.508;2022-11-12T04:37:50;109.45;;;50.33;;
72464;SDS011;60471;52.150;4.508;2022-11-12T04:40:21;109.38;;;50.95;;
72464;SDS011;60471;52.150;4.508;2022-11-12T04:43:10;127.38;;;51.33;;
72464;SDS011;60471;52.150;4.508;2022-11-12T04:45:58;114.28;;;48.88;;
72464;SDS011;60471;52.150;4.508;2022-11-12T04:48:26;111.20;;;46.97;;
72464;SDS011;60471;52.150;4.508;2022-11-12T04:50:54;126.72;;;50.90;;
72464;SDS011;60471;52.150;4.508;2022-11-12T04:53:25;121.80;;;45.28;;
72464;SDS011;60471;52.150;4.508;2022-11-12T04:55:54;134.73;;;49.47;;
72464;SDS011;60471;52.150;4.508;2022-11-12T04:58:23;106.32;;;47.00;;
72464;SDS011;60471;52.150;4.508;2022-11-12T05:00:52;125.05;;;48.78;;
72464;SDS011;60471;52.150;4.508;2022-11-12T05:03:18;120.80;;;49.67;;
72464;SDS011;60471;52.150;4.508;2022-11-12T05:05:45;126.85;;;49.47;;
72464;SDS011;60471;52.150;4.508;2022-11-12T05:08:12;110.45;;;47.42;;
72464;SDS011;60471;52.150;4.508;2022-11-12T05:10:38;113.78;;;45.70;;
72464;SDS011;60471;52.150;4.508;2022-11-12T05:13:04;103.75;;;47.70;;
72464;SDS011;60471;52.150;4.508;2022-11-12T05:15:30;134.18;;;46.90;;
72464;SDS011;60471;52.150;4.508;2022-11-12T05:17:56;112.13;;;46.35;;
72464;SDS011;60471;52.150;4.508;2022-11-12T05:20:23;124.45;;;48.88;;
72464;SDS011;60471;52.150;4.508;2022-11-12T05:22:49;117.80;;;46.47;;
72464;SDS011;60471;52.150;4.508;2022-11-12T05:25:15;97.68;;;44.85;;
72464;SDS011;60471;52.150;4.508;2022-11-12T05:27:42;108.10;;;45.33;;
72464;SDS011;60471;52.150;4.508;2022-11-12T05:30:08;111.15;;;45.70;;
72464;SDS011;60471;52.150;4.508;2022-11-12T05:32:35;136.80;;;44.15;;
72464;SDS011;60471;52.150;4.508;2022-11-12T05:35:02;103.63;;;45.65;;
72464;SDS011;60471;52.150;4.508;2022-11-12T05:37:28;271.75;;;45.85;;
72464;SDS011;60471;52.150;4.508;2022-11-12T05:39:54;197.68;;;43.40;;
72464;SDS011;60471;52.150;4.508;2022-11-12T05:42:21;523.78;;;61.97;;
72464;SDS011;60471;52.150;4.508;2022-11-12T05:44:47;281.73;;;49.97;;
72464;SDS011;60471;52.150;4.508;2022-11-12T05:47:13;340.27;;;49.15;;
72464;SDS011;60471;52.150;4.508;2022-11-12T05:49:39;277.48;;;49.47;;
72464;SDS011;60471;52.150;4.508;2022-11-12T05:52:05;457.60;;;54.45;;
72464;SDS011;60471;52.150;4.508;2022-11-12T05:54:32;502.67;;;60.50;;
72464;SDS011;60471;52.150;4.508;2022-11-12T05:56:58;443.83;;;55.95;;
72464;SDS011;60471;52.150;4.508;2022-11-12T05:59:24;470.88;;;58.63;;
72464;SDS011;60471;52.150;4.508;2022-11-12T06:01:50;359.50;;;53.05;;
72464;SDS011;60471;52.150;4.508;2022-11-12T06:04:16;315.02;;;49.47;;
72464;SDS011;60471;52.150;4.508;2022-11-12T06:06:43;480.30;;;57.80;;
72464;SDS011;60471;52.150;4.508;2022-11-12T06:09:09;312.23;;;51.15;;
72464;SDS011;60471;52.150;4.508;2022-11-12T06:11:36;133.27;;;44.35;;
72464;SDS011;60471;52.150;4.508;2022-11-12T06:14:03;278.85;;;47.45;;
72464;SDS011;60471;52.150;4.508;2022-11-12T06:16:30;537.40;;;68.35;;
72464;SDS011;60471;52.150;4.508;2022-11-12T06:18:56;180.18;;;41.50;;
72464;SDS011;60471;52.150;4.508;2022-11-12T06:21:24;189.05;;;37.60;;
72464;SDS011;60471;52.150;4.508;2022-11-12T06:23:54;256.58;;;46.35;;
72464;SDS011;60471;52.150;4.508;2022-11-12T06:26:24;208.52;;;41.47;;
72464;SDS011;60471;52.150;4.508;2022-11-12T06:28:53;322.67;;;43.80;;
72464;SDS011;60471;52.150;4.508;2022-11-12T06:31:20;145.90;;;36.35;;
72464;SDS011;60471;52.150;4.508;2022-11-12T06:33:48;198.48;;;60.55;;
72464;SDS011;60471;52.150;4.508;2022-11-12T06:36:16;258.05;;;48.08;;
72464;SDS011;60471;52.150;4.508;2022-11-12T06:38:44;148.80;;;35.92;;
72464;SDS011;60471;52.150;4.508;2022-11-12T06:41:11;317.63;;;44.05;;
72464;SDS011;60471;52.150;4.508;2022-11-12T06:43:39;291.80;;;39.47;;
72464;SDS011;60471;52.150;4.508;2022-11-12T06:46:11;460.65;;;51.13;;
72464;SDS011;60471;52.150;4.508;2022-11-12T06:48:40;187.25;;;36.28;;
72464;SDS011;60471;52.150;4.508;2022-11-12T06:51:08;181.68;;;34.70;;
72464;SDS011;60471;52.150;4.508;2022-11-12T06:53:41;382.52;;;89.40;;
72464;SDS011;60471;52.150;4.508;2022-11-12T06:56:08;427.65;;;53.65;;
72464;SDS011;60471;52.150;4.508;2022-11-12T06:58:34;180.60;;;35.30;;
72464;SDS011;60471;52.150;4.508;2022-11-12T07:01:05;127.80;;;33.33;;
72464;SDS011;60471;52.150;4.508;2022-11-12T07:03:40;90.70;;;29.50;;
72464;SDS011;60471;52.150;4.508;2022-11-12T07:06:09;136.98;;;31.15;;
72464;SDS011;60471;52.150;4.508;2022-11-12T07:08:39;163.77;;;34.30;;
72464;SDS011;60471;52.150;4.508;2022-11-12T07:11:06;333.83;;;43.13;;
72464;SDS011;60471;52.150;4.508;2022-11-12T07:13:34;172.63;;;33.40;;
72464;SDS011;60471;52.150;4.508;2022-11-12T07:16:02;168.70;;;34.78;;
72464;SDS011;60471;52.150;4.508;2022-11-12T07:18:30;98.25;;;29.52;;
72464;SDS011;60471;52.150;4.508;2022-11-12T07:21:00;81.05;;;27.38;;
72464;SDS011;60471;52.150;4.508;2022-11-12T07:23:31;68.72;;;25.70;;
72464;SDS011;60471;52.150;4.508;2022-11-12T07:26:01;88.70;;;27.20;;
72464;SDS011;60471;52.150;4.508;2022-11-12T07:28:43;85.88;;;26.67;;
72464;SDS011;60471;52.150;4.508;2022-11-12T07:31:11;71.35;;;24.90;;
72464;SDS011;60471;52.150;4.508;2022-11-12T07:33:39;98.22;;;36.00;;
72464;SDS011;60471;52.150;4.508;2022-11-12T07:36:07;42.97;;;25.73;;
72464;SDS011;60471;52.150;4.508;2022-11-12T07:38:38;70.13;;;25.75;;
72464;SDS011;60471;52.150;4.508;2022-11-12T07:41:07;46.55;;;22.58;;
72464;SDS011;60471;52.150;4.508;2022-11-12T07:43:41;39.13;;;22.30;;
72464;SDS011;60471;52.150;4.508;2022-11-12T07:46:11;38.10;;;23.83;;
72464;SDS011;60471;52.150;4.508;2022-11-12T07:48:37;32.03;;;21.58;;
72464;SDS011;60471;52.150;4.508;2022-11-12T07:53:35;53.15;;;36.08;;
72464;SDS011;60471;52.150;4.508;2022-11-12T07:56:02;30.92;;;20.95;;
72464;SDS011;60471;52.150;4.508;2022-11-12T07:58:30;29.40;;;18.80;;
72464;SDS011;60471;52.150;4.508;2022-11-12T08:01:08;26.85;;;17.92;;
72464;SDS011;60471;52.150;4.508;2022-11-12T08:03:57;25.65;;;17.00;;
72464;SDS011;60471;52.150;4.508;2022-11-12T08:06:25;32.70;;;21.40;;
72464;SDS011;60471;52.150;4.508;2022-11-12T08:08:52;43.72;;;27.63;;
72464;SDS011;60471;52.150;4.508;2022-11-12T08:11:20;90.32;;;55.75;;
72464;SDS011;60471;52.150;4.508;2022-11-12T08:13:46;26.23;;;16.58;;
72464;SDS011;60471;52.150;4.508;2022-11-12T08:16:14;28.10;;;17.42;;
72464;SDS011;60471;52.150;4.508;2022-11-12T08:18:41;26.20;;;17.13;;
72464;SDS011;60471;52.150;4.508;2022-11-12T08:21:09;27.77;;;17.38;;
72464;SDS011;60471;52.150;4.508;2022-11-12T08:23:39;22.73;;;16.42;;
72464;SDS011;60471;52.150;4.508;2022-11-12T08:26:07;23.83;;;15.43;;
72464;SDS011;60471;52.150;4.508;2022-11-12T08:28:36;23.88;;;15.60;;
72464;SDS011;60471;52.150;4.508;2022-11-12T08:31:04;24.70;;;15.82;;
72464;SDS011;60471;52.150;4.508;2022-11-12T08:33:37;25.98;;;16.27;;
72464;SDS011;60471;52.150;4.508;2022-11-12T08:36:05;22.23;;;15.57;;
72464;SDS011;60471;52.150;4.508;2022-11-12T08:38:35;22.17;;;14.52;;
72464;SDS011;60471;52.150;4.508;2022-11-12T08:41:02;23.00;;;15.27;;
72464;SDS011;60471;52.150;4.508;2022-11-12T08:43:30;21.48;;;14.55;;
72464;SDS011;60471;52.150;4.508;2022-11-12T08:45:58;21.92;;;14.77;;
72464;SDS011;60471;52.150;4.508;2022-11-12T08:48:26;20.55;;;13.93;;
72464;SDS011;60471;52.150;4.508;2022-11-12T08:50:54;19.52;;;13.35;;
72464;SDS011;60471;52.150;4.508;2022-11-12T08:53:21;21.52;;;13.93;;
72464;SDS011;60471;52.150;4.508;2022-11-12T08:55:55;22.80;;;13.07;;
72464;SDS011;60471;52.150;4.508;2022-11-12T08:58:23;21.30;;;13.63;;
72464;SDS011;60471;52.150;4.508;2022-11-12T09:00:51;19.48;;;12.38;;
72464;SDS011;60471;52.150;4.508;2022-11-12T09:03:19;19.00;;;11.80;;
72464;SDS011;60471;52.150;4.508;2022-11-12T09:05:49;18.92;;;12.25;;
72464;SDS011;60471;52.150;4.508;2022-11-12T09:08:17;20.00;;;13.05;;
72464;SDS011;60471;52.150;4.508;2022-11-12T09:10:48;22.30;;;12.98;;
72464;SDS011;60471;52.150;4.508;2022-11-12T09:13:16;19.25;;;11.30;;
72464;SDS011;60471;52.150;4.508;2022-11-12T09:15:43;18.58;;;10.98;;
72464;SDS011;60471;52.150;4.508;2022-11-12T09:18:12;18.17;;;11.00;;
72464;SDS011;60471;52.150;4.508;2022-11-12T09:20:41;20.60;;;12.18;;
72464;SDS011;60471;52.150;4.508;2022-11-12T09:23:12;19.10;;;11.70;;
72464;SDS011;60471;52.150;4.508;2022-11-12T09:25:40;17.65;;;11.20;;
72464;SDS011;60471;52.150;4.508;2022-11-12T09:28:08;18.38;;;10.27;;
72464;SDS011;60471;52.150;4.508;2022-11-12T09:30:44;16.63;;;10.43;;
72464;SDS011;60471;52.150;4.508;2022-11-12T09:33:17;18.58;;;10.35;;
72464;SDS011;60471;52.150;4.508;2022-11-12T09:35:47;17.25;;;10.50;;
72464;SDS011;60471;52.150;4.508;2022-11-12T09:38:14;15.05;;;9.07;;
72464;SDS011;60471;52.150;4.508;2022-11-12T09:43:37;18.15;;;10.00;;
72464;SDS011;60471;52.150;4.508;2022-11-12T09:46:19;20.15;;;10.40;;
72464;SDS011;60471;52.150;4.508;2022-11-12T09:49:15;17.83;;;9.82;;
72464;SDS011;60471;52.150;4.508;2022-11-12T09:51:50;15.75;;;9.77;;
72464;SDS011;60471;52.150;4.508;2022-11-12T09:54:29;31.05;;;17.02;;
72464;SDS011;60471;52.150;4.508;2022-11-12T09:56:57;23.23;;;10.18;;
72464;SDS011;60471;52.150;4.508;2022-11-12T09:59:28;27.58;;;15.95;;
72464;SDS011;60471;52.150;4.508;2022-11-12T10:07:47;14.18;;;9.45;;
72464;SDS011;60471;52.150;4.508;2022-11-12T10:10:34;15.50;;;9.48;;
72464;SDS011;60471;52.150;4.508;2022-11-12T10:16:42;17.73;;;10.10;;
72464;SDS011;60471;52.150;4.508;2022-11-12T10:22:43;15.63;;;10.45;;
72464;SDS011;60471;52.150;4.508;2022-11-12T10:25:22;14.80;;;9.75;;
72464;SDS011;60471;52.150;4.508;2022-11-12T10:27:49;18.17;;;10.65;;
72464;SDS011;60471;52.150;4.508;2022-11-12T10:30:23;17.23;;;9.65;;
72464;SDS011;60471;52.150;4.508;2022-11-12T10:32:50;18.27;;;10.02;;
72464;SDS011;60471;52.150;4.508;2022-11-12T10:35:19;17.73;;;9.95;;
72464;SDS011;60471;52.150;4.508;2022-11-12T10:37:49;18.33;;;10.13;;
72464;SDS011;60471;52.150;4.508;2022-11-12T10:42:57;15.63;;;9.75;;
72464;SDS011;60471;52.150;4.508;2022-11-12T10:45:42;16.55;;;9.93;;
72464;SDS011;60471;52.150;4.508;2022-11-12T10:48:25;14.25;;;8.85;;
72464;SDS011;60471;52.150;4.508;2022-11-12T10:50:56;14.57;;;8.82;;
72464;SDS011;60471;52.150;4.508;2022-11-12T10:53:36;17.48;;;8.95;;
72464;SDS011;60471;52.150;4.508;2022-11-12T10:56:21;16.02;;;8.52;;
72464;SDS011;60471;52.150;4.508;2022-11-12T11:01:41;15.00;;;8.35;;
72464;SDS011;60471;52.150;4.508;2022-11-12T11:04:16;16.95;;;7.93;;
72464;SDS011;60471;52.150;4.508;2022-11-12T11:07:14;12.52;;;7.10;;
72464;SDS011;60471;52.150;4.508;2022-11-12T11:09:54;15.10;;;7.32;;
72464;SDS011;60471;52.150;4.508;2022-11-12T11:12:26;15.48;;;8.95;;
72464;SDS011;60471;52.150;4.508;2022-11-12T11:17:44;12.00;;;6.78;;
72464;SDS011;60471;52.150;4.508;2022-11-12T11:22:55;12.65;;;6.95;;
72464;SDS011;60471;52.150;4.508;2022-11-12T11:25:31;14.45;;;8.13;;
72464;SDS011;60471;52.150;4.508;2022-11-12T11:28:12;14.77;;;7.68;;
72464;SDS011;60471;52.150;4.508;2022-11-12T11:31:02;11.30;;;6.15;;
72464;SDS011;60471;52.150;4.508;2022-11-12T11:34:01;12.13;;;6.82;;
72464;SDS011;60471;52.150;4.508;2022-11-12T11:37:06;13.43;;;6.88;;
72464;SDS011;60471;52.150;4.508;2022-11-12T11:40:06;17.00;;;7.57;;
72464;SDS011;60471;52.150;4.508;2022-11-12T11:52:32;11.48;;;6.13;;
72464;SDS011;60471;52.150;4.508;2022-11-12T12:01:09;13.27;;;6.07;;
72464;SDS011;60471;52.150;4.508;2022-11-12T12:04:05;12.50;;;5.72;;
72464;SDS011;60471;52.150;4.508;2022-11-12T12:15:48;17.50;;;5.55;;
72464;SDS011;60471;52.150;4.508;2022-11-12T12:21:23;12.15;;;5.75;;
72464;SDS011;60471;52.150;4.508;2022-11-12T12:24:00;10.50;;;5.32;;
72464;SDS011;60471;52.150;4.508;2022-11-12T12:26:47;10.65;;;4.88;;
72464;SDS011;60471;52.150;4.508;2022-11-12T12:32:26;9.32;;;4.47;;
72464;SDS011;60471;52.150;4.508;2022-11-12T12:35:12;11.98;;;4.32;;
72464;SDS011;60471;52.150;4.508;2022-11-12T12:38:10;10.63;;;4.50;;
72464;SDS011;60471;52.150;4.508;2022-11-12T12:40:54;9.50;;;4.28;;
72464;SDS011;60471;52.150;4.508;2022-11-12T12:43:32;10.77;;;4.45;;
72464;SDS011;60471;52.150;4.508;2022-11-12T12:46:09;10.68;;;3.58;;
72464;SDS011;60471;52.150;4.508;2022-11-12T12:48:39;9.07;;;3.67;;
72464;SDS011;60471;52.150;4.508;2022-11-12T12:51:09;10.93;;;3.72;;
72464;SDS011;60471;52.150;4.508;2022-11-12T12:53:37;8.35;;;3.80;;
72464;SDS011;60471;52.150;4.508;2022-11-12T12:56:40;8.98;;;3.97;;
72464;SDS011;60471;52.150;4.508;2022-11-12T12:58:55;8.43;;;3.30;;
72464;SDS011;60471;52.150;4.508;2022-11-12T13:01:29;9.80;;;3.80;;
72464;SDS011;60471;52.150;4.508;2022-11-12T13:04:00;8.63;;;3.58;;
72464;SDS011;60471;52.150;4.508;2022-11-12T13:19:34;9.00;;;3.45;;
72464;SDS011;60471;52.150;4.508;2022-11-12T13:37:48;9.23;;;4.38;;
72464;SDS011;60471;52.150;4.508;2022-11-12T13:40:41;9.38;;;4.72;;
72464;SDS011;60471;52.150;4.508;2022-11-12T13:45:43;10.43;;;5.07;;
72464;SDS011;60471;52.150;4.508;2022-11-12T13:48:28;9.57;;;5.00;;
72464;SDS011;60471;52.150;4.508;2022-11-12T13:51:02;14.43;;;5.43;;
72464;SDS011;60471;52.150;4.508;2022-11-12T13:53:42;13.18;;;5.28;;
72464;SDS011;60471;52.150;4.508;2022-11-12T13:56:11;10.32;;;5.47;;
72464;SDS011;60471;52.150;4.508;2022-11-12T13:58:53;11.88;;;5.47;;
72464;SDS011;60471;52.150;4.508;2022-11-12T14:01:21;14.02;;;6.28;;
72464;SDS011;60471;52.150;4.508;2022-11-12T14:03:51;10.43;;;5.45;;
72464;SDS011;60471;52.150;4.508;2022-11-12T14:06:20;10.88;;;5.40;;
72464;SDS011;60471;52.150;4.508;2022-11-12T14:22:54;11.02;;;4.47;;
72464;SDS011;60471;52.150;4.508;2022-11-12T14:25:25;10.02;;;4.38;;
72464;SDS011;60471;52.150;4.508;2022-11-12T14:27:53;12.10;;;4.85;;
72464;SDS011;60471;52.150;4.508;2022-11-12T14:30:22;9.55;;;3.95;;
72464;SDS011;60471;52.150;4.508;2022-11-12T14:32:58;10.63;;;4.55;;
72464;SDS011;60471;52.150;4.508;2022-11-12T14:35:33;9.93;;;4.50;;
72464;SDS011;60471;52.150;4.508;2022-11-12T14:41:08;10.25;;;4.80;;
72464;SDS011;60471;52.150;4.508;2022-11-12T14:46:36;12.60;;;4.68;;
72464;SDS011;60471;52.150;4.508;2022-11-12T14:49:29;11.38;;;4.90;;
72464;SDS011;60471;52.150;4.508;2022-11-12T14:52:09;9.63;;;4.68;;
72464;SDS011;60471;52.150;4.508;2022-11-12T14:55:14;11.82;;;4.75;;
72464;SDS011;60471;52.150;4.508;2022-11-12T14:57:47;10.38;;;4.50;;
72464;SDS011;60471;52.150;4.508;2022-11-12T15:00:23;10.88;;;4.82;;
72464;SDS011;60471;52.150;4.508;2022-11-12T15:03:06;12.00;;;4.25;;
72464;SDS011;60471;52.150;4.508;2022-11-12T15:05:52;10.75;;;4.25;;
72464;SDS011;60471;52.150;4.508;2022-11-12T15:08:33;13.60;;;4.70;;
72464;SDS011;60471;52.150;4.508;2022-11-12T15:13:50;10.23;;;4.50;;
72464;SDS011;60471;52.150;4.508;2022-11-12T15:16:22;12.77;;;5.07;;
72464;SDS011;60471;52.150;4.508;2022-11-12T15:19:14;11.88;;;5.30;;
72464;SDS011;60471;52.150;4.508;2022-11-12T15:21:52;12.50;;;4.45;;
72464;SDS011;60471;52.150;4.508;2022-11-12T15:24:32;12.00;;;4.88;;
72464;SDS011;60471;52.150;4.508;2022-11-12T15:27:01;9.75;;;5.13;;
72464;SDS011;60471;52.150;4.508;2022-11-12T15:30:13;12.55;;;5.82;;
72464;SDS011;60471;52.150;4.508;2022-11-12T15:32:48;13.50;;;5.40;;
72464;SDS011;60471;52.150;4.508;2022-11-12T15:35:33;14.40;;;5.65;;
72464;SDS011;60471;52.150;4.508;2022-11-12T15:38:02;11.90;;;5.85;;
72464;SDS011;60471;52.150;4.508;2022-11-12T15:40:41;13.20;;;6.45;;
72464;SDS011;60471;52.150;4.508;2022-11-12T15:43:20;12.77;;;6.20;;
72464;SDS011;60471;52.150;4.508;2022-11-12T15:45:51;11.48;;;5.85;;
72464;SDS011;60471;52.150;4.508;2022-11-12T15:48:21;11.32;;;6.30;;
72464;SDS011;60471;52.150;4.508;2022-11-12T15:50:47;13.00;;;6.35;;
72464;SDS011;60471;52.150;4.508;2022-11-12T15:53:14;11.57;;;6.13;;
72464;SDS011;60471;52.150;4.508;2022-11-12T15:55:41;17.33;;;6.75;;
72464;SDS011;60471;52.150;4.508;2022-11-12T15:58:19;14.68;;;7.35;;
72464;SDS011;60471;52.150;4.508;2022-11-12T16:00:56;15.73;;;6.72;;
72464;SDS011;60471;52.150;4.508;2022-11-12T16:03:23;16.23;;;7.90;;
72464;SDS011;60471;52.150;4.508;2022-11-12T16:05:49;15.77;;;8.50;;
72464;SDS011;60471;52.150;4.508;2022-11-12T16:08:15;17.77;;;8.80;;
72464;SDS011;60471;52.150;4.508;2022-11-12T16:10:43;19.05;;;8.55;;
72464;SDS011;60471;52.150;4.508;2022-11-12T16:13:13;97.25;;;60.78;;
72464;SDS011;60471;52.150;4.508;2022-11-12T16:15:47;29.30;;;15.05;;
72464;SDS011;60471;52.150;4.508;2022-11-12T16:18:16;87.35;;;49.63;;
72464;SDS011;60471;52.150;4.508;2022-11-12T16:20:42;67.07;;;42.95;;
72464;SDS011;60471;52.150;4.508;2022-11-12T16:23:08;20.88;;;11.55;;
72464;SDS011;60471;52.150;4.508;2022-11-12T16:25:35;18.45;;;10.40;;
72464;SDS011;60471;52.150;4.508;2022-11-12T16:28:11;16.83;;;10.27;;
72464;SDS011;60471;52.150;4.508;2022-11-12T16:30:41;21.13;;;9.85;;
72464;SDS011;60471;52.150;4.508;2022-11-12T16:33:09;20.73;;;9.45;;
72464;SDS011;60471;52.150;4.508;2022-11-12T16:35:37;18.13;;;10.18;;
72464;SDS011;60471;52.150;4.508;2022-11-12T16:38:11;18.35;;;10.00;;
72464;SDS011;60471;52.150;4.508;2022-11-12T16:40:41;17.27;;;9.35;;
72464;SDS011;60471;52.150;4.508;2022-11-12T16:43:08;17.05;;;9.85;;
72464;SDS011;60471;52.150;4.508;2022-11-12T16:45:36;17.60;;;9.68;;
72464;SDS011;60471;52.150;4.508;2022-11-12T16:48:12;16.70;;;9.80;;